Time;durP1;ratioP1;P1;durP2;ratioP2;P2;SDS_P1;SDS_P2;PMS_P1;PMS_P2;Temp;Humidity;BMP_temperature;BMP_pressure;BME280_temperature;BME280_humidity;BME280_pressure;Samples;Min_cycle;Max_cycle;Signal;HPM_P1;HPM_P2
2022/12/12 00:01:33;;;;;;;19.80;11.07;;;;;;;-6.66;100.00;95454.13;5031244;28;20526;-73
2022/12/12 00:04:01;;;;;;;15.97;10.57;;;;;;;-6.73;100.00;95461.22;5032667;28;20424;-73
2022/12/12 00:06:28;;;;;;;12.67;8.67;;;;;;;-6.70;100.00;95455.63;5039683;28;20440;-73
2022/12/12 00:08:55;;;;;;;12.93;9.47;;;;;;;-6.90;100.00;95427.91;5050947;28;20429;-73
2022/12/12 00:11:22;;;;;;;12.17;8.57;;;;;;;-6.65;100.00;95465.97;5052464;28;20472;-73
2022/12/12 00:13:49;;;;;;;13.17;8.77;;;;;;;-7.23;100.00;95403.84;5051367;28;20944;-73
2022/12/12 00:16:16;;;;;;;15.47;10.47;;;;;;;-6.99;100.00;95466.03;5051331;28;20438;-73
2022/12/12 00:18:43;;;;;;;15.90;11.10;;;;;;;-7.29;100.00;95393.75;5051084;28;20465;-72
2022/12/12 00:21:14;;;;;;;17.13;9.37;;;;;;;-7.48;100.00;95411.19;5043626;28;20495;-72
2022/12/12 00:23:41;;;;;;;20.30;9.73;;;;;;;-7.36;100.00;95426.50;5032286;28;20798;-72
2022/12/12 00:26:23;;;;;;;15.17;10.17;;;;;;;-7.16;100.00;95458.38;5030951;28;20435;-72
2022/12/12 00:28:50;;;;;;;12.50;9.33;;;;;;;-7.07;100.00;95453.63;5015826;28;20451;-72
2022/12/12 00:31:17;;;;;;;17.20;10.00;;;;;;;-7.05;100.00;95466.22;5042967;28;20464;-72
2022/12/12 00:33:46;;;;;;;13.13;8.73;;;;;;;-7.04;100.00;95454.94;5031733;28;20803;-74
2022/12/12 00:36:13;;;;;;;14.63;9.90;;;;;;;-7.05;100.00;95458.53;5030540;28;20438;-74
2022/12/12 00:38:40;;;;;;;12.90;9.50;;;;;;;-7.02;100.00;95469.09;5030566;28;20466;-74
2022/12/12 00:41:08;;;;;;;15.17;9.50;;;;;;;-7.06;100.00;95477.50;5030431;28;20536;-74
2022/12/12 00:43:34;;;;;;;13.53;11.20;;;;;;;-7.09;100.00;95475.41;5022527;28;20432;-74
2022/12/12 00:46:01;;;;;;;14.10;10.43;;;;;;;-7.20;100.00;95477.06;5020611;28;20840;-74
2022/12/12 00:48:28;;;;;;;15.83;9.40;;;;;;;-7.15;100.00;95477.91;5018474;28;20422;-74
2022/12/12 00:50:55;;;;;;;13.97;9.90;;;;;;;-7.06;100.00;95482.66;5043890;28;20563;-74
2022/12/12 00:53:23;;;;;;;19.27;10.10;;;;;;;-7.18;100.00;95467.34;5017446;28;20854;-75
2022/12/12 00:55:57;;;;;;;10.13;8.80;;;;;;;-7.24;100.00;95469.03;5031841;28;20531;-74
2022/12/12 00:58:24;;;;;;;15.17;10.47;;;;;;;-7.14;100.00;95483.81;5039600;28;20995;-75
2022/12/12 01:00:52;;;;;;;18.33;10.20;;;;;;;-7.19;100.00;95486.31;5033489;28;20468;-74
2022/12/12 01:03:19;;;;;;;13.17;10.10;;;;;;;-7.12;100.00;95493.84;5051432;28;20429;-74
2022/12/12 01:05:47;;;;;;;15.10;9.87;;;;;;;-7.25;100.00;95482.09;5018392;28;20434;-75
2022/12/12 01:08:14;;;;;;;15.13;9.80;;;;;;;-7.27;100.00;95466.94;5013683;28;20470;-74
2022/12/12 01:10:40;;;;;;;13.70;9.00;;;;;;;-7.19;100.00;95494.81;5029918;28;20498;-74
2022/12/12 01:13:07;;;;;;;10.73;8.50;;;;;;;-7.34;100.00;95494.59;5030166;28;20950;-74
2022/12/12 01:15:34;;;;;;;13.07;9.33;;;;;;;-7.63;100.00;95454.59;5033322;28;20833;-74
2022/12/12 01:18:00;;;;;;;17.03;10.13;;;;;;;-7.42;100.00;95505.22;5032057;28;20461;-74
2022/12/12 01:20:27;;;;;;;13.23;9.80;;;;;;;-7.32;100.00;95510.53;5045478;28;20916;-74
2022/12/12 01:22:55;;;;;;;13.97;10.53;;;;;;;-7.34;100.00;95471.47;5049844;28;20465;-74
2022/12/12 01:25:22;;;;;;;15.40;10.70;;;;;;;-7.14;100.00;95509.50;5033100;28;20460;-74
2022/12/12 01:27:49;;;;;;;13.30;10.30;;;;;;;-7.17;100.00;95497.91;5039853;28;20444;-74
2022/12/12 01:30:20;;;;;;;16.27;12.17;;;;;;;-7.11;100.00;95498.75;5029608;28;20441;-74
2022/12/12 01:32:47;;;;;;;16.17;9.43;;;;;;;-7.02;100.00;95525.59;5041664;28;20433;-74
2022/12/12 01:35:14;;;;;;;15.33;10.97;;;;;;;-7.02;100.00;95519.69;5029730;28;21020;-74
2022/12/12 01:37:41;;;;;;;16.60;11.40;;;;;;;-7.06;100.00;95527.09;5037682;28;20465;-73
2022/12/12 01:40:14;;;;;;;16.30;11.27;;;;;;;-7.01;100.00;95523.81;5029570;28;20922;-74
2022/12/12 01:42:41;;;;;;;15.03;10.13;;;;;;;-7.12;100.00;95511.81;5042221;28;20479;-74
2022/12/12 01:45:46;;;;;;;10.17;9.03;;;;;;;-7.04;100.00;95526.84;5042703;28;20440;-74
2022/12/12 01:48:13;;;;;;;18.10;11.13;;;;;;;-7.15;100.00;95523.34;5013056;28;20437;-74
2022/12/12 01:50:42;;;;;;;17.67;11.00;;;;;;;-7.02;100.00;95517.88;5024858;28;20525;-74
2022/12/12 01:53:10;;;;;;;12.70;9.57;;;;;;;-6.97;100.00;95525.66;5049418;28;20444;-74
2022/12/12 01:55:37;;;;;;;12.47;10.67;;;;;;;-6.86;100.00;95501.66;5049425;28;20498;-74
2022/12/12 01:58:04;;;;;;;13.33;9.83;;;;;;;-6.75;100.00;95518.00;5050803;28;20507;-74
2022/12/12 02:00:31;;;;;;;17.53;11.47;;;;;;;-6.79;100.00;95527.22;5049323;28;20449;-74
2022/12/12 02:02:59;;;;;;;14.70;9.80;;;;;;;-6.92;100.00;95524.97;5029786;28;20941;-74
2022/12/12 02:05:34;;;;;;;11.67;8.87;;;;;;;-6.98;100.00;95524.09;5029367;28;20548;-74
2022/12/12 02:08:03;;;;;;;12.73;10.47;;;;;;;-6.77;100.00;95525.19;5029554;28;20485;-74
2022/12/12 02:10:30;;;;;;;22.17;11.33;;;;;;;-6.69;100.00;95542.75;5029864;28;20445;-74
2022/12/12 02:13:02;;;;;;;15.70;10.40;;;;;;;-7.10;100.00;95504.66;5030496;28;20470;-73
2022/12/12 02:15:39;;;;;;;12.90;9.07;;;;;;;-6.91;100.00;95529.09;5033426;28;20972;-73
2022/12/12 02:18:20;;;;;;;11.33;8.90;;;;;;;-6.68;100.00;95544.28;5033224;28;20454;-74
2022/12/12 02:21:00;;;;;;;14.50;11.10;;;;;;;-6.71;100.00;95541.41;5026564;28;20892;-74
2022/12/12 02:23:39;;;;;;;14.03;9.70;;;;;;;-6.64;100.00;95537.69;5052746;28;20507;-74
2022/12/12 02:26:27;;;;;;;14.87;9.20;;;;;;;-6.66;100.00;95539.72;5033330;28;20452;-74
2022/12/12 02:29:28;;;;;;;13.50;9.93;;;;;;;-6.69;100.00;95537.59;5033199;28;20426;-74
2022/12/12 02:32:06;;;;;;;18.87;11.27;;;;;;;-6.76;100.00;95538.78;5038582;28;20439;-74
2022/12/12 02:34:40;;;;;;;11.93;9.80;;;;;;;-6.80;100.00;95543.63;5040437;28;20433;-74
2022/12/12 02:37:19;;;;;;;14.10;9.47;;;;;;;-6.91;100.00;95529.09;5033162;28;20484;-74
2022/12/12 02:40:05;;;;;;;17.37;11.10;;;;;;;-6.96;100.00;95537.47;5016521;28;20963;-74
2022/12/12 02:42:43;;;;;;;11.43;9.43;;;;;;;-7.02;100.00;95546.13;5032891;28;20452;-74
2022/12/12 02:45:51;;;;;;;15.57;10.03;;;;;;;-7.01;100.00;95545.13;5044024;28;20425;-74
2022/12/12 02:48:27;;;;;;;17.93;10.90;;;;;;;-7.03;100.00;95543.81;5016497;28;20784;-74
2022/12/12 02:50:57;;;;;;;13.37;11.30;;;;;;;-6.96;100.00;95542.63;5033998;28;20454;-74
2022/12/12 02:53:24;;;;;;;18.10;11.50;;;;;;;-7.13;100.00;95513.63;5016986;28;20436;-75
2022/12/12 02:56:07;;;;;;;14.73;9.87;;;;;;;-6.88;100.00;95542.22;5019281;28;20430;-75
2022/12/12 02:58:37;;;;;;;15.03;11.43;;;;;;;-7.06;100.00;95505.75;5052332;28;20464;-75
2022/12/12 03:01:12;;;;;;;16.03;10.33;;;;;;;-6.56;100.00;95541.63;5050071;28;20456;-75
2022/12/12 03:10:13;;;;;;;15.43;10.17;;;;;;;-6.83;100.00;95515.03;5032423;28;20449;-75
2022/12/12 03:12:59;;;;;;;17.80;10.83;;;;;;;-6.79;100.00;95509.22;5032265;28;20461;-75
2022/12/12 03:15:35;;;;;;;12.80;9.17;;;;;;;-6.61;100.00;95539.00;5015739;28;20441;-75
2022/12/12 03:18:16;;;;;;;19.30;11.20;;;;;;;-6.76;100.00;95542.13;5033326;28;20552;-75
2022/12/12 03:21:14;;;;;;;14.70;10.67;;;;;;;-6.92;100.00;95543.72;5015535;28;20481;-75
2022/12/12 03:23:46;;;;;;;13.40;9.17;;;;;;;-6.90;100.00;95540.91;5049778;28;20806;-75
2022/12/12 03:26:42;;;;;;;15.80;9.57;;;;;;;-6.87;100.00;95540.44;5035877;28;20531;-75
2022/12/12 03:29:14;;;;;;;15.00;10.83;;;;;;;-7.10;100.00;95546.53;5043910;28;20437;-75
2022/12/12 03:31:46;;;;;;;13.13;8.50;;;;;;;-7.05;100.00;95549.19;5033209;28;20457;-75
2022/12/12 03:34:20;;;;;;;15.00;9.63;;;;;;;-6.85;100.00;95557.16;5048527;28;20517;-75
2022/12/12 03:37:13;;;;;;;18.60;10.53;;;;;;;-6.96;100.00;95549.53;5031830;28;20884;-75
2022/12/12 03:39:48;;;;;;;15.50;9.80;;;;;;;-7.06;100.00;95552.00;5007808;28;20505;-75
2022/12/12 03:42:24;;;;;;;11.97;9.50;;;;;;;-7.07;100.00;95547.88;5032056;28;20465;-75
2022/12/12 03:44:57;;;;;;;12.37;9.17;;;;;;;-7.44;100.00;95525.22;5041849;28;20445;-75
2022/12/12 03:47:34;;;;;;;13.90;9.20;;;;;;;-7.65;100.00;95528.44;5031680;28;20465;-75
2022/12/12 03:50:08;;;;;;;17.07;8.20;;;;;;;-7.58;100.00;95544.50;5031832;28;20985;-75
2022/12/12 03:52:50;;;;;;;11.00;8.40;;;;;;;-7.68;100.00;95531.47;5033348;28;20790;-75
2022/12/12 03:55:28;;;;;;;13.00;8.77;;;;;;;-7.49;100.00;95543.84;5051423;28;20441;-75
2022/12/12 03:58:04;;;;;;;12.00;8.40;;;;;;;-7.61;100.00;95522.66;5052695;28;20467;-75
2022/12/12 04:00:37;;;;;;;16.43;10.30;;;;;;;-7.52;100.00;95539.19;5051532;28;20937;-75
2022/12/12 04:03:25;;;;;;;13.67;9.27;;;;;;;-7.58;100.00;95535.00;5053002;28;20921;-75
2022/12/12 04:15:17;;;;;;;15.47;8.93;;;;;;;-7.85;100.00;95527.09;5052448;28;20421;-75
2022/12/12 04:17:44;;;;;;;15.07;7.77;;;;;;;-7.76;100.00;95543.66;5050995;28;20968;-75
2022/12/12 04:23:53;;;;;;;14.10;8.47;;;;;;;-7.76;100.00;95542.88;5049788;28;20438;-75
2022/12/12 04:26:38;;;;;;;14.27;9.00;;;;;;;-7.77;100.00;95538.75;5032330;28;20432;-75
2022/12/12 04:29:17;;;;;;;15.40;9.27;;;;;;;-7.78;100.00;95547.47;5031086;28;20426;-75
2022/12/12 04:32:14;;;;;;;11.37;8.40;;;;;;;-8.37;100.00;95560.50;5030825;28;20841;-74
2022/12/12 04:34:59;;;;;;;14.03;8.67;;;;;;;-8.51;100.00;95559.22;5030150;28;20953;-74
2022/12/12 04:37:42;;;;;;;12.57;8.60;;;;;;;-8.77;100.00;95531.50;5032080;28;20426;-74
2022/12/12 04:40:23;;;;;;;11.70;8.67;;;;;;;-8.69;100.00;95557.53;5030620;28;20453;-74
2022/12/12 04:43:01;;;;;;;14.13;9.47;;;;;;;-8.84;100.00;95541.06;5030545;28;20452;-74
2022/12/12 04:45:34;;;;;;;16.83;10.57;;;;;;;-8.82;100.00;95555.19;5041874;28;20422;-74
2022/12/12 04:48:04;;;;;;;14.50;11.47;;;;;;;-8.51;100.00;95566.88;5030599;28;20553;-74
2022/12/12 04:50:42;;;;;;;14.17;9.27;;;;;;;-8.42;100.00;95578.34;5024701;28;20476;-75
2022/12/12 04:53:13;;;;;;;18.23;11.50;;;;;;;-8.36;100.00;95569.75;5033716;28;20464;-75
2022/12/12 04:55:51;;;;;;;18.47;11.87;;;;;;;-8.38;100.00;95582.03;5050333;28;20432;-75
2022/12/12 04:58:18;;;;;;;14.70;9.27;;;;;;;-8.43;100.00;95558.84;5051527;28;20513;-75
2022/12/12 05:00:49;;;;;;;20.17;11.20;;;;;;;-8.22;100.00;95539.50;5033453;28;20487;-75
2022/12/12 05:03:40;;;;;;;17.83;12.40;;;;;;;-7.94;100.00;95582.31;5051475;28;20478;-74
2022/12/12 05:06:11;;;;;;;23.13;13.73;;;;;;;-7.91;100.00;95576.72;5050086;28;20427;-75
2022/12/12 05:08:44;;;;;;;20.73;12.00;;;;;;;-8.06;100.00;95561.84;5050084;28;20446;-75
2022/12/12 05:11:12;;;;;;;16.17;11.00;;;;;;;-7.82;100.00;95585.63;5049761;28;20522;-75
2022/12/12 05:13:41;;;;;;;18.13;13.33;;;;;;;-8.18;100.00;95563.66;5033497;28;20530;-75
2022/12/12 05:16:33;;;;;;;19.73;12.83;;;;;;;-8.10;100.00;95581.25;5050113;28;20854;-75
2022/12/12 05:19:00;;;;;;;17.53;12.50;;;;;;;-8.31;100.00;95565.69;5048228;28;20481;-75
2022/12/12 05:21:27;;;;;;;19.47;12.30;;;;;;;-8.29;100.00;95579.84;5049568;28;20502;-75
2022/12/12 05:23:53;;;;;;;17.50;11.30;;;;;;;-8.34;100.00;95575.41;5051129;28;20422;-75
2022/12/12 05:26:27;;;;;;;16.40;11.27;;;;;;;-8.22;100.00;95580.50;5051024;28;20914;-75
2022/12/12 05:28:54;;;;;;;17.50;11.30;;;;;;;-8.23;100.00;95596.91;5033226;28;20444;-75
2022/12/12 05:31:21;;;;;;;17.33;11.20;;;;;;;-8.17;100.00;95587.50;5049739;28;20998;-75
2022/12/12 05:33:48;;;;;;;18.90;11.00;;;;;;;-8.10;100.00;95593.31;5049688;28;20468;-75
2022/12/12 05:36:16;;;;;;;15.57;10.90;;;;;;;-8.10;100.00;95598.44;5023373;28;20965;-74
2022/12/12 05:38:43;;;;;;;20.27;13.10;;;;;;;-8.44;100.00;95567.53;5017915;28;20461;-74
2022/12/12 05:41:10;;;;;;;13.67;10.67;;;;;;;-8.25;100.00;95596.34;5030714;28;20450;-74
2022/12/12 05:43:37;;;;;;;17.23;9.97;;;;;;;-8.25;100.00;95593.78;5017019;28;20436;-75
2022/12/12 05:46:05;;;;;;;14.97;10.27;;;;;;;-8.68;100.00;95576.25;5016396;28;20794;-75
2022/12/12 05:48:32;;;;;;;16.97;10.83;;;;;;;-8.87;100.00;95534.63;5029588;28;20522;-75
2022/12/12 05:51:02;;;;;;;15.57;10.60;;;;;;;-8.69;100.00;95560.09;5030511;28;20462;-75
2022/12/12 05:53:29;;;;;;;20.13;12.30;;;;;;;-8.47;100.00;95585.91;5032190;28;20442;-75
2022/12/12 05:55:56;;;;;;;13.77;10.50;;;;;;;-8.60;100.00;95563.09;5032789;28;20455;-75
2022/12/12 05:58:23;;;;;;;13.77;9.27;;;;;;;-8.47;100.00;95578.25;5049171;28;20999;-75
2022/12/12 06:00:50;;;;;;;13.70;10.90;;;;;;;-8.29;100.00;95599.56;5050984;28;20526;-75
2022/12/12 06:03:17;;;;;;;22.33;13.57;;;;;;;-8.44;100.00;95570.09;5050448;28;20432;-74
2022/12/12 06:05:44;;;;;;;19.13;13.27;;;;;;;-8.36;100.00;95568.97;5050614;28;20434;-75
2022/12/12 06:08:13;;;;;;;20.53;14.20;;;;;;;-8.61;100.00;95578.69;5033098;28;20434;-75
2022/12/12 06:10:40;;;;;;;16.50;11.90;;;;;;;-8.73;100.00;95568.47;5048829;28;20444;-75
2022/12/12 06:13:07;;;;;;;17.00;12.57;;;;;;;-8.61;100.00;95591.50;5049946;28;20495;-75
2022/12/12 06:15:38;;;;;;;23.23;15.17;;;;;;;-8.72;100.00;95559.78;5049427;28;20447;-75
2022/12/12 06:18:05;;;;;;;19.97;13.03;;;;;;;-8.54;100.00;95603.22;5032209;28;20532;-74
2022/12/12 06:20:32;;;;;;;13.63;10.73;;;;;;;-8.37;100.00;95568.19;5048740;28;20477;-74
2022/12/12 06:22:58;;;;;;;15.00;10.97;;;;;;;-8.72;100.00;95583.59;5039010;28;21029;-74
2022/12/12 06:25:25;;;;;;;18.47;11.30;;;;;;;-8.49;100.00;95592.28;5012665;28;20785;-74
2022/12/12 06:27:52;;;;;;;19.07;11.90;;;;;;;-8.51;100.00;95599.41;5030425;28;20481;-74
2022/12/12 06:30:19;;;;;;;14.93;10.40;;;;;;;-8.55;100.00;95605.97;5029092;28;20429;-74
2022/12/12 06:32:45;;;;;;;16.90;10.63;;;;;;;-8.34;100.00;95605.41;5029029;28;20467;-75
2022/12/12 06:35:12;;;;;;;17.27;10.97;;;;;;;-8.71;100.00;95599.75;5012684;28;20946;-75
2022/12/12 06:37:39;;;;;;;12.20;9.27;;;;;;;-8.91;100.00;95612.09;5030392;28;20427;-75
2022/12/12 06:40:07;;;;;;;14.23;9.30;;;;;;;-9.32;100.00;95593.25;5027524;28;20982;-75
2022/12/12 06:42:34;;;;;;;16.70;10.90;;;;;;;-9.19;100.00;95616.06;5012476;28;20464;-75
2022/12/12 06:45:00;;;;;;;16.00;11.37;;;;;;;-8.75;100.00;95617.34;5039188;28;20488;-75
2022/12/12 06:47:27;;;;;;;19.50;14.33;;;;;;;-8.83;100.00;95593.84;5029023;28;20430;-74
2022/12/12 06:49:53;;;;;;;24.67;14.30;;;;;;;-8.57;100.00;95620.78;5028731;28;20430;-74
2022/12/12 06:52:20;;;;;;;21.13;16.57;;;;;;;-8.55;100.00;95621.34;5028743;28;20501;-72
2022/12/12 06:54:49;;;;;;;19.87;11.27;;;;;;;-8.56;100.00;95618.00;5028817;28;20466;-72
2022/12/12 06:57:15;;;;;;;15.20;13.13;;;;;;;-8.54;100.00;95625.50;5029243;28;20533;-73
2022/12/12 06:59:42;;;;;;;18.07;14.17;;;;;;;-8.62;100.00;95636.84;5028778;28;20541;-73
2022/12/12 07:02:11;;;;;;;27.20;20.80;;;;;;;-8.88;100.00;95627.81;5030075;28;20833;-72
2022/12/12 07:04:37;;;;;;;34.73;24.70;;;;;;;-8.93;100.00;95640.50;5031701;28;20469;-73
2022/12/12 07:07:04;;;;;;;34.70;24.03;;;;;;;-8.97;100.00;95637.56;5032438;28;20492;-73
2022/12/12 07:09:31;;;;;;;34.43;25.80;;;;;;;-9.16;100.00;95607.94;5053314;28;20922;-75
2022/12/12 07:11:57;;;;;;;48.03;32.87;;;;;;;-9.11;100.00;95615.75;5052572;28;20519;-73
2022/12/12 07:14:24;;;;;;;41.70;27.40;;;;;;;-9.03;100.00;95640.25;5052010;28;20441;-72
2022/12/12 07:16:51;;;;;;;30.93;19.93;;;;;;;-9.35;100.00;95606.44;5053334;28;20425;-72
2022/12/12 07:19:17;;;;;;;24.67;18.40;;;;;;;-9.23;100.00;95622.59;5052011;28;20584;-72
2022/12/12 07:21:44;;;;;;;31.83;20.20;;;;;;;-9.25;100.00;95622.84;5051943;28;20560;-72
2022/12/12 07:24:11;;;;;;;33.00;21.00;;;;;;;-9.01;100.00;95643.38;5015182;28;20438;-74
2022/12/12 07:26:38;;;;;;;25.97;17.60;;;;;;;-8.94;100.00;95651.75;5025481;28;20448;-74
2022/12/12 07:29:04;;;;;;;33.23;19.80;;;;;;;-8.91;100.00;95643.63;5033390;28;20418;-74
2022/12/12 07:31:32;;;;;;;33.27;25.93;;;;;;;-8.83;100.00;95655.28;5028894;28;21068;-74
2022/12/12 07:33:59;;;;;;;33.80;21.50;;;;;;;-8.82;100.00;95657.63;5035344;28;20968;-74
2022/12/12 07:36:25;;;;;;;34.93;23.17;;;;;;;-8.96;100.00;95656.28;5030174;28;20534;-74
2022/12/12 07:38:52;;;;;;;34.70;21.77;;;;;;;-9.01;100.00;95654.38;5031739;28;20462;-75
2022/12/12 07:41:19;;;;;;;29.70;18.87;;;;;;;-9.08;100.00;95625.56;5031544;28;20481;-75
2022/12/12 07:43:48;;;;;;;35.17;21.20;;;;;;;-8.80;100.00;95662.56;5036817;28;20796;-75
2022/12/12 07:46:22;;;;;;;35.20;21.00;;;;;;;-8.97;100.00;95640.13;5018322;28;20785;-75
2022/12/12 07:48:49;;;;;;;28.70;21.37;;;;;;;-8.74;100.00;95667.56;5031832;28;20437;-74
2022/12/12 07:51:16;;;;;;;29.60;20.93;;;;;;;-8.76;100.00;95655.97;5015014;28;20462;-75
2022/12/12 07:53:43;;;;;;;38.70;23.60;;;;;;;-8.65;100.00;95665.47;5031495;28;20483;-75
2022/12/12 07:56:11;;;;;;;31.20;22.17;;;;;;;-8.55;100.00;95670.03;5031659;28;20787;-75
2022/12/12 07:58:38;;;;;;;36.60;21.23;;;;;;;-8.65;100.00;95668.03;5031324;28;20917;-75
2022/12/12 08:01:11;;;;;;;33.93;23.00;;;;;;;-8.76;100.00;95664.44;5014751;28;20469;-74
2022/12/12 08:03:42;;;;;;;34.50;19.57;;;;;;;-8.54;100.00;95679.28;5032609;28;20487;-74
2022/12/12 08:06:09;;;;;;;31.70;20.07;;;;;;;-8.53;100.00;95675.72;5032861;28;20457;-74
2022/12/12 08:08:36;;;;;;;27.13;18.20;;;;;;;-8.43;100.00;95681.06;5031399;28;20803;-74
2022/12/12 08:11:05;;;;;;;32.60;21.03;;;;;;;-8.41;100.00;95684.97;5032201;28;20533;-74
2022/12/12 08:13:34;;;;;;;23.83;15.73;;;;;;;-8.70;100.00;95686.59;5032384;28;20548;-75
2022/12/12 08:16:03;;;;;;;24.03;16.13;;;;;;;-8.62;100.00;95690.63;5030360;28;20513;-75
2022/12/12 08:18:30;;;;;;;21.77;15.37;;;;;;;-8.55;100.00;95685.38;5032724;28;20438;-74
2022/12/12 08:20:57;;;;;;;24.13;15.57;;;;;;;-8.58;100.00;95689.19;5031113;28;20489;-75
2022/12/12 08:23:24;;;;;;;25.93;17.67;;;;;;;-8.60;100.00;95696.31;5014910;28;20450;-75
2022/12/12 08:25:50;;;;;;;25.70;17.33;;;;;;;-8.84;100.00;95669.88;5016077;28;20438;-74
2022/12/12 08:28:17;;;;;;;25.93;17.83;;;;;;;-8.83;100.00;95662.97;5032362;28;20903;-74
2022/12/12 08:30:48;;;;;;;23.57;16.37;;;;;;;-8.73;100.00;95673.47;5033539;28;20455;-74
2022/12/12 08:33:14;;;;;;;27.20;16.30;;;;;;;-8.69;100.00;95664.31;5017205;28;20464;-74
2022/12/12 08:35:41;;;;;;;32.30;16.70;;;;;;;-8.44;100.00;95693.09;5031679;28;20429;-75
2022/12/12 08:38:07;;;;;;;34.57;17.90;;;;;;;-8.49;100.00;95664.03;5033049;28;20429;-75
2022/12/12 08:40:34;;;;;;;23.33;15.50;;;;;;;-8.30;100.00;95678.22;5030596;28;20465;-75
2022/12/12 08:43:01;;;;;;;22.40;14.77;;;;;;;-8.09;100.00;95700.75;5035019;28;20757;-75
2022/12/12 08:45:28;;;;;;;33.70;21.70;;;;;;;-8.16;100.00;95686.47;5042446;28;20806;-75
2022/12/12 08:47:54;;;;;;;27.37;15.20;;;;;;;-8.19;100.00;95703.09;5033515;28;20433;-74
2022/12/12 08:50:21;;;;;;;20.60;14.40;;;;;;;-8.19;100.00;95679.25;5030839;28;20430;-74
2022/12/12 08:52:47;;;;;;;26.87;14.67;;;;;;;-7.87;100.00;95715.56;5031662;28;20471;-75
2022/12/12 08:55:14;;;;;;;24.30;14.87;;;;;;;-8.04;100.00;95684.69;5052771;28;20435;-75
2022/12/12 08:57:41;;;;;;;25.70;15.70;;;;;;;-8.17;100.00;95677.22;5052551;28;20445;-74
2022/12/12 09:00:09;;;;;;;27.87;15.77;;;;;;;-8.03;100.00;95686.25;5040635;28;20460;-74
2022/12/12 09:02:36;;;;;;;20.03;13.17;;;;;;;-7.92;100.00;95700.84;5016256;28;20566;-75
2022/12/12 09:05:03;;;;;;;23.07;13.90;;;;;;;-7.81;100.00;95697.47;5031058;28;20442;-75
2022/12/12 09:07:30;;;;;;;20.77;15.63;;;;;;;-7.68;100.00;95695.66;5033473;28;20496;-75
2022/12/12 09:09:56;;;;;;;25.40;16.80;;;;;;;-7.20;100.00;95713.28;5032787;28;20941;-75
2022/12/12 09:12:23;;;;;;;21.17;14.33;;;;;;;-7.09;100.00;95698.81;5018524;28;20471;-74
2022/12/12 09:14:50;;;;;;;21.10;15.00;;;;;;;-7.09;100.00;95720.13;5051051;28;20520;-74
2022/12/12 09:17:17;;;;;;;20.97;14.83;;;;;;;-7.18;100.00;95729.22;5052958;28;20966;-74
2022/12/12 09:19:44;;;;;;;23.43;13.40;;;;;;;-7.21;100.00;95724.53;5033738;28;21001;-74
2022/12/12 09:22:11;;;;;;;21.50;11.27;;;;;;;-7.38;100.00;95709.09;5034017;28;20555;-74
2022/12/12 09:24:38;;;;;;;26.00;13.37;;;;;;;-7.52;100.00;95706.00;5032698;28;20949;-73
2022/12/12 09:27:04;;;;;;;18.90;12.30;;;;;;;-7.32;100.00;95722.81;5035019;28;20428;-73
2022/12/12 09:29:31;;;;;;;20.87;12.33;;;;;;;-7.23;100.00;95723.97;5051739;28;20467;-74
2022/12/12 09:31:58;;;;;;;19.37;11.73;;;;;;;-7.20;100.00;95720.97;5053929;28;20864;-75
2022/12/12 09:34:25;;;;;;;22.73;11.37;;;;;;;-6.92;100.00;95741.53;5051809;28;20452;-74
2022/12/12 09:36:51;;;;;;;23.10;12.67;;;;;;;-7.07;100.00;95709.66;5010895;28;20450;-74
2022/12/12 09:39:18;;;;;;;13.10;10.37;;;;;;;-6.87;100.00;95725.41;5032141;28;20453;-74
2022/12/12 09:41:49;;;;;;;14.80;10.30;;;;;;;-6.60;100.00;95741.78;5031558;28;20533;-74
2022/12/12 09:44:21;;;;;;;12.27;7.03;;;;;;;-6.85;100.00;95707.97;5042651;28;20449;-74
2022/12/12 09:46:52;;;;;;;11.67;7.67;;;;;;;-6.50;100.00;95741.19;5033310;28;20858;-74
2022/12/12 09:49:32;;;;;;;8.80;5.70;;;;;;;-6.46;100.00;95747.41;5030052;28;20457;-74
2022/12/12 09:52:12;;;;;;;6.33;4.40;;;;;;;-6.44;100.00;95745.38;5031572;28;20452;-74
2022/12/12 09:54:39;;;;;;;12.63;8.20;;;;;;;-6.63;100.00;95701.16;5029799;28;20946;-73
2022/12/12 09:57:08;;;;;;;10.30;6.70;;;;;;;-6.30;100.00;95738.13;5030160;28;20537;-74
2022/12/12 10:00:13;;;;;;;8.83;7.53;;;;;;;-6.17;100.00;95742.19;5035313;28;20491;-74
2022/12/12 10:03:04;;;;;;;10.30;6.57;;;;;;;-6.12;100.00;95742.28;5041744;28;20571;-74
2022/12/12 10:05:43;;;;;;;11.53;8.50;;;;;;;-6.14;100.00;95724.50;5049592;28;20543;-74
2022/12/12 10:08:19;;;;;;;9.90;6.97;;;;;;;-6.02;100.00;95743.19;5049194;28;20502;-74
2022/12/12 10:10:50;;;;;;;9.57;8.60;;;;;;;-5.99;100.00;95742.72;5049237;28;20449;-74
2022/12/12 10:13:25;;;;;;;12.43;6.50;;;;;;;-5.93;100.00;95747.94;5049192;28;20468;-74
2022/12/12 10:16:02;;;;;;;9.80;7.40;;;;;;;-5.75;100.00;95743.25;5049400;28;20428;-74
2022/12/12 10:18:38;;;;;;;5.60;4.77;;;;;;;-5.76;100.00;95740.94;5050387;28;20493;-75
2022/12/12 10:21:13;;;;;;;4.37;3.97;;;;;;;-5.71;100.00;95748.75;5033199;28;20538;-75
2022/12/12 10:23:53;;;;;;;9.90;6.53;;;;;;;-5.59;100.00;95743.50;5049475;28;20532;-75
2022/12/12 10:26:24;;;;;;;8.13;6.53;;;;;;;-5.85;100.00;95711.50;5049643;28;20877;-75
2022/12/12 10:29:10;;;;;;;7.40;6.70;;;;;;;-5.84;100.00;95706.09;5050168;28;20417;-75
2022/12/12 10:31:39;;;;;;;12.07;6.90;;;;;;;-5.51;100.00;95761.84;5049008;28;20449;-75
2022/12/12 10:34:45;;;;;;;9.93;7.17;;;;;;;-5.54;100.00;95756.41;5049146;28;20427;-75
2022/12/12 10:37:32;;;;;;;12.33;7.10;;;;;;;-5.43;100.00;95761.47;5022267;28;20434;-74
2022/12/12 10:40:13;;;;;;;6.90;4.37;;;;;;;-5.42;100.00;95755.28;5031870;28;20541;-75
2022/12/12 10:42:46;;;;;;;4.50;4.10;;;;;;;-5.31;100.00;95758.00;5033204;28;20490;-75
2022/12/12 10:45:39;;;;;;;6.37;4.70;;;;;;;-5.40;100.00;95766.13;5044397;28;20424;-74
2022/12/12 10:48:06;;;;;;;5.40;4.43;;;;;;;-5.58;100.00;95720.06;5016649;28;20424;-74
2022/12/12 10:50:46;;;;;;;6.67;5.20;;;;;;;-5.26;100.00;95752.88;5034414;28;20449;-74
2022/12/12 10:53:13;;;;;;;5.80;4.97;;;;;;;-5.44;100.00;95718.69;5032515;28;20441;-74
2022/12/12 10:55:54;;;;;;;9.73;5.33;;;;;;;-5.11;100.00;95758.22;5033919;28;20430;-74
2022/12/12 10:58:36;;;;;;;27.33;6.30;;;;;;;-5.34;100.00;95723.19;5016986;28;20442;-74
2022/12/12 11:01:24;;;;;;;5.33;4.40;;;;;;;-5.15;100.00;95739.88;5035830;28;20469;-74
2022/12/12 11:04:13;;;;;;;4.73;4.33;;;;;;;-5.03;100.00;95744.91;5037843;28;20526;-74
2022/12/12 11:06:47;;;;;;;7.33;5.40;;;;;;;-5.18;100.00;95724.13;5052403;28;20444;-74
2022/12/12 11:09:18;;;;;;;6.00;5.40;;;;;;;-4.90;100.00;95754.06;5054801;28;20482;-75
2022/12/12 11:12:12;;;;;;;8.10;5.47;;;;;;;-4.89;100.00;95756.38;5054355;28;20445;-74
2022/12/12 11:14:45;;;;;;;8.23;7.20;;;;;;;-5.01;100.00;95724.81;5054482;28;20424;-74
2022/12/12 11:17:26;;;;;;;9.87;7.50;;;;;;;-4.90;100.00;95731.63;5053522;28;20432;-75
2022/12/12 11:19:55;;;;;;;8.47;6.07;;;;;;;-4.73;100.00;95749.59;5054113;28;20453;-75
2022/12/12 11:22:23;;;;;;;8.53;6.00;;;;;;;-4.97;100.00;95736.19;5035202;28;20562;-75
2022/12/12 11:24:51;;;;;;;6.40;5.33;;;;;;;-4.89;100.00;95725.47;5036150;28;21304;-74
2022/12/12 11:27:23;;;;;;;8.43;5.40;;;;;;;-4.79;100.00;95748.00;5035687;28;20447;-74
2022/12/12 11:29:54;;;;;;;8.10;5.47;;;;;;;-4.80;100.00;95754.94;5052887;28;20440;-74
2022/12/12 11:32:24;;;;;;;5.60;4.60;;;;;;;-4.74;100.00;95749.81;5053503;28;20437;-75
2022/12/12 11:34:58;;;;;;;7.20;5.00;;;;;;;-5.00;100.00;95715.28;5053165;28;20439;-75
2022/12/12 11:37:36;;;;;;;6.23;4.70;;;;;;;-4.66;100.00;95745.03;5006139;28;20432;-74
2022/12/12 11:40:04;;;;;;;6.60;4.77;;;;;;;-4.73;100.00;95723.81;5015366;28;20841;-74
2022/12/12 11:42:33;;;;;;;5.23;4.60;;;;;;;-4.58;100.00;95741.19;5031687;28;20937;-75
2022/12/12 11:45:20;;;;;;;6.47;4.43;;;;;;;-4.61;100.00;95723.66;5041805;28;20457;-73
2022/12/12 11:47:47;;;;;;;5.80;4.87;;;;;;;-4.48;100.00;95741.31;5032727;28;20428;-74
2022/12/12 11:50:26;;;;;;;5.03;4.10;;;;;;;-4.39;100.00;95737.25;5044882;28;20429;-75
2022/12/12 11:52:55;;;;;;;8.53;5.43;;;;;;;-4.49;100.00;95719.88;5037577;28;20858;-75
2022/12/12 11:55:27;;;;;;;8.60;5.00;;;;;;;-4.39;100.00;95736.47;5053510;28;20437;-75